sensor_id;sensor_type;location;lat;lon;timestamp;pressure;altitude;pressure_sealevel;temperature;humidity
43621;BME280;29213;50.770;7.298;2023-06-10T00:01:25;100580.41;;;16.94;52.90
43621;BME280;29213;50.770;7.298;2023-06-10T00:03:51;100617.66;;;17.11;53.29
43621;BME280;29213;50.770;7.298;2023-06-10T00:06:17;100619.31;;;17.12;53.12
43621;BME280;29213;50.770;7.298;2023-06-10T00:08:43;100586.59;;;16.88;52.88
43621;BME280;29213;50.770;7.298;2023-06-10T00:11:08;100600.47;;;16.92;52.68
43621;BME280;29213;50.770;7.298;2023-06-10T00:13:33;100599.41;;;16.86;52.55
43621;BME280;29213;50.770;7.298;2023-06-10T00:15:59;100610.81;;;16.95;52.35
43621;BME280;29213;50.770;7.298;2023-06-10T00:18:24;100652.41;;;17.13;52.38
43621;BME280;29213;50.770;7.298;2023-06-10T00:20:52;100647.66;;;17.08;52.41
43621;BME280;29213;50.770;7.298;2023-06-10T00:23:18;100641.88;;;17.04;52.50
43621;BME280;29213;50.770;7.298;2023-06-10T00:25:43;100620.28;;;16.84;52.51
43621;BME280;29213;50.770;7.298;2023-06-10T00:28:09;100646.63;;;16.95;52.63
43621;BME280;29213;50.770;7.298;2023-06-10T00:30:34;100616.13;;;16.75;52.65
43621;BME280;29213;50.770;7.298;2023-06-10T00:33:00;100602.44;;;16.63;52.51
43621;BME280;29213;50.770;7.298;2023-06-10T00:35:25;100628.53;;;16.76;52.83
43621;BME280;29213;50.770;7.298;2023-06-10T00:37:50;100646.53;;;16.82;52.50
43621;BME280;29213;50.770;7.298;2023-06-10T00:40:17;100598.72;;;16.50;52.69
43621;BME280;29213;50.770;7.298;2023-06-10T00:42:42;100563.94;;;16.22;52.81
43621;BME280;29213;50.770;7.298;2023-06-10T00:45:07;100601.78;;;16.40;52.81
43621;BME280;29213;50.770;7.298;2023-06-10T00:47:33;100583.34;;;16.24;53.02
43621;BME280;29213;50.770;7.298;2023-06-10T00:50:00;100637.59;;;16.54;52.84
43621;BME280;29213;50.770;7.298;2023-06-10T00:52:28;100602.38;;;16.29;52.83
43621;BME280;29213;50.770;7.298;2023-06-10T00:54:55;100605.25;;;16.27;53.00
43621;BME280;29213;50.770;7.298;2023-06-10T00:57:20;100609.00;;;16.26;53.06
43621;BME280;29213;50.770;7.298;2023-06-10T00:59:48;100557.34;;;15.89;53.09
43621;BME280;29213;50.770;7.298;2023-06-10T01:02:13;100611.84;;;16.18;53.15
43621;BME280;29213;50.770;7.298;2023-06-10T01:04:39;100613.28;;;16.21;53.29
43621;BME280;29213;50.770;7.298;2023-06-10T01:10:02;100646.81;;;16.25;53.48
43621;BME280;29213;50.770;7.298;2023-06-10T01:12:46;100551.84;;;15.62;53.09
43621;BME280;29213;50.770;7.298;2023-06-10T01:15:16;100605.94;;;15.94;53.47
43621;BME280;29213;50.770;7.298;2023-06-10T01:20:19;100572.94;;;15.65;53.83
43621;BME280;29213;50.770;7.298;2023-06-10T01:22:45;100656.47;;;16.12;53.73
43621;BME280;29213;50.770;7.298;2023-06-10T01:25:11;100535.75;;;15.27;53.76
43621;BME280;29213;50.770;7.298;2023-06-10T01:27:38;100590.91;;;15.65;54.01
43621;BME280;29213;50.770;7.298;2023-06-10T01:30:17;100584.47;;;15.59;53.91
43621;BME280;29213;50.770;7.298;2023-06-10T01:32:48;100593.34;;;15.59;54.21
43621;BME280;29213;50.770;7.298;2023-06-10T01:35:15;100605.53;;;15.62;53.99
43621;BME280;29213;50.770;7.298;2023-06-10T01:37:43;100577.78;;;15.41;53.93
43621;BME280;29213;50.770;7.298;2023-06-10T01:40:11;100594.72;;;15.48;53.95
43621;BME280;29213;50.770;7.298;2023-06-10T01:42:37;100609.00;;;15.56;54.14
43621;BME280;29213;50.770;7.298;2023-06-10T01:45:03;100575.41;;;15.31;54.14
43621;BME280;29213;50.770;7.298;2023-06-10T01:47:29;100637.19;;;15.67;54.49
43621;BME280;29213;50.770;7.298;2023-06-10T01:49:54;100646.66;;;15.62;54.30
43621;BME280;29213;50.770;7.298;2023-06-10T01:52:20;100618.84;;;15.42;54.31
43621;BME280;29213;50.770;7.298;2023-06-10T01:54:45;100591.84;;;15.21;54.51
43621;BME280;29213;50.770;7.298;2023-06-10T01:57:10;100634.31;;;15.40;54.42
43621;BME280;29213;50.770;7.298;2023-06-10T01:59:36;100652.13;;;15.47;54.40
43621;BME280;29213;50.770;7.298;2023-06-10T02:02:03;100659.38;;;15.54;54.76
43621;BME280;29213;50.770;7.298;2023-06-10T02:04:29;100650.00;;;15.43;54.46
43621;BME280;29213;50.770;7.298;2023-06-10T02:06:54;100626.16;;;15.26;54.57
43621;BME280;29213;50.770;7.298;2023-06-10T02:09:21;100660.94;;;15.41;54.78
43621;BME280;29213;50.770;7.298;2023-06-10T02:11:48;100592.00;;;14.91;54.67
43621;BME280;29213;50.770;7.298;2023-06-10T02:14:14;100661.28;;;15.31;55.05
43621;BME280;29213;50.770;7.298;2023-06-10T02:16:39;100637.38;;;15.08;55.19
43621;BME280;29213;50.770;7.298;2023-06-10T02:19:05;100589.78;;;14.73;55.25
43621;BME280;29213;50.770;7.298;2023-06-10T02:21:32;100664.28;;;15.21;55.20
43621;BME280;29213;50.770;7.298;2023-06-10T02:24:00;100648.34;;;14.98;55.30
43621;BME280;29213;50.770;7.298;2023-06-10T02:26:25;100623.84;;;14.79;55.33
43621;BME280;29213;50.770;7.298;2023-06-10T02:28:51;100641.47;;;14.89;55.48
43621;BME280;29213;50.770;7.298;2023-06-10T02:31:17;100671.94;;;15.03;55.55
43621;BME280;29213;50.770;7.298;2023-06-10T02:33:43;100681.66;;;15.04;55.60
43621;BME280;29213;50.770;7.298;2023-06-10T02:36:10;100681.19;;;15.00;55.76
43621;BME280;29213;50.770;7.298;2023-06-10T02:38:39;100612.84;;;14.52;55.75
43621;BME280;29213;50.770;7.298;2023-06-10T02:41:07;100625.13;;;14.62;55.62
43621;BME280;29213;50.770;7.298;2023-06-10T02:43:33;100669.06;;;14.82;55.82
43621;BME280;29213;50.770;7.298;2023-06-10T02:45:58;100685.19;;;14.89;55.91
43621;BME280;29213;50.770;7.298;2023-06-10T02:48:24;100650.97;;;14.69;56.13
43621;BME280;29213;50.770;7.298;2023-06-10T02:50:49;100656.97;;;14.72;56.08
43621;BME280;29213;50.770;7.298;2023-06-10T02:53:15;100658.19;;;14.69;56.33
43621;BME280;29213;50.770;7.298;2023-06-10T02:55:40;100608.75;;;14.35;56.24
43621;BME280;29213;50.770;7.298;2023-06-10T02:58:06;100686.53;;;14.78;56.15
43621;BME280;29213;50.770;7.298;2023-06-10T03:00:32;100649.38;;;14.53;56.15
43621;BME280;29213;50.770;7.298;2023-06-10T03:02:58;100636.44;;;14.42;56.30
43621;BME280;29213;50.770;7.298;2023-06-10T03:05:25;100534.31;;;13.78;56.28
43621;BME280;29213;50.770;7.298;2023-06-10T03:07:51;100686.63;;;14.70;56.26
43621;BME280;29213;50.770;7.298;2023-06-10T03:10:16;100688.88;;;14.66;56.21
43621;BME280;29213;50.770;7.298;2023-06-10T03:12:42;100634.72;;;14.34;56.48
43621;BME280;29213;50.770;7.298;2023-06-10T03:15:07;100624.56;;;14.29;56.29
43621;BME280;29213;50.770;7.298;2023-06-10T03:17:33;100665.44;;;14.53;56.45
43621;BME280;29213;50.770;7.298;2023-06-10T03:19:58;100673.94;;;14.57;56.30
43621;BME280;29213;50.770;7.298;2023-06-10T03:22:24;100652.63;;;14.34;56.34
43621;BME280;29213;50.770;7.298;2023-06-10T03:24:49;100627.25;;;14.14;56.47
43621;BME280;29213;50.770;7.298;2023-06-10T03:27:15;100674.91;;;14.34;56.39
43621;BME280;29213;50.770;7.298;2023-06-10T03:29:41;100683.75;;;14.35;56.62
43621;BME280;29213;50.770;7.298;2023-06-10T03:32:07;100637.22;;;14.06;56.70
43621;BME280;29213;50.770;7.298;2023-06-10T03:34:33;100549.19;;;13.50;56.71
43621;BME280;29213;50.770;7.298;2023-06-10T03:36:58;100628.81;;;13.94;56.98
43621;BME280;29213;50.770;7.298;2023-06-10T03:39:25;100551.66;;;13.37;56.81
43621;BME280;29213;50.770;7.298;2023-06-10T03:41:50;100575.56;;;13.54;56.93
43621;BME280;29213;50.770;7.298;2023-06-10T03:44:16;100641.28;;;13.86;56.88
43621;BME280;29213;50.770;7.298;2023-06-10T03:46:41;100613.50;;;13.72;57.03
43621;BME280;29213;50.770;7.298;2023-06-10T03:49:07;100652.25;;;13.92;57.04
43621;BME280;29213;50.770;7.298;2023-06-10T03:51:32;100646.63;;;13.86;57.17
43621;BME280;29213;50.770;7.298;2023-06-10T03:53:58;100610.72;;;13.66;57.37
43621;BME280;29213;50.770;7.298;2023-06-10T03:56:23;100634.56;;;13.75;57.49
43621;BME280;29213;50.770;7.298;2023-06-10T03:58:49;100651.81;;;13.88;57.42
43621;BME280;29213;50.770;7.298;2023-06-10T04:01:14;100612.66;;;13.57;57.52
43621;BME280;29213;50.770;7.298;2023-06-10T04:03:39;100663.34;;;13.88;57.61
43621;BME280;29213;50.770;7.298;2023-06-10T04:06:07;100673.88;;;13.90;57.80
43621;BME280;29213;50.770;7.298;2023-06-10T04:08:32;100636.28;;;13.68;58.07
43621;BME280;29213;50.770;7.298;2023-06-10T04:10:58;100709.66;;;14.12;57.99
43621;BME280;29213;50.770;7.298;2023-06-10T04:13:23;100686.16;;;13.99;57.81
43621;BME280;29213;50.770;7.298;2023-06-10T04:15:49;100644.41;;;13.75;57.71
43621;BME280;29213;50.770;7.298;2023-06-10T04:18:15;100643.56;;;13.74;57.87
43621;BME280;29213;50.770;7.298;2023-06-10T04:20:41;100642.59;;;13.75;57.88
43621;BME280;29213;50.770;7.298;2023-06-10T04:23:06;100687.63;;;14.02;57.96
43621;BME280;29213;50.770;7.298;2023-06-10T04:25:32;100713.88;;;14.22;57.76
43621;BME280;29213;50.770;7.298;2023-06-10T04:27:57;100719.06;;;14.23;57.70
43621;BME280;29213;50.770;7.298;2023-06-10T04:30:22;100710.00;;;14.24;57.69
43621;BME280;29213;50.770;7.298;2023-06-10T04:32:48;100588.28;;;13.52;57.78
43621;BME280;29213;50.770;7.298;2023-06-10T04:35:15;100673.41;;;14.01;57.99
43621;BME280;29213;50.770;7.298;2023-06-10T04:37:41;100641.75;;;13.90;57.66
43621;BME280;29213;50.770;7.298;2023-06-10T04:40:07;100669.34;;;14.06;58.06
43621;BME280;29213;50.770;7.298;2023-06-10T04:42:33;100595.78;;;13.56;58.08
43621;BME280;29213;50.770;7.298;2023-06-10T04:44:59;100683.50;;;14.14;58.10
43621;BME280;29213;50.770;7.298;2023-06-10T04:47:24;100676.66;;;14.12;57.86
43621;BME280;29213;50.770;7.298;2023-06-10T04:49:49;100704.56;;;14.33;57.91
43621;BME280;29213;50.770;7.298;2023-06-10T04:52:15;100675.75;;;14.20;58.33
43621;BME280;29213;50.770;7.298;2023-06-10T04:54:40;100714.06;;;14.50;58.28
43621;BME280;29213;50.770;7.298;2023-06-10T04:57:06;100646.75;;;14.08;58.47
43621;BME280;29213;50.770;7.298;2023-06-10T04:59:33;100655.88;;;14.14;58.42
43621;BME280;29213;50.770;7.298;2023-06-10T05:01:58;100662.63;;;14.25;58.39
43621;BME280;29213;50.770;7.298;2023-06-10T05:04:24;100711.19;;;14.52;58.58
43621;BME280;29213;50.770;7.298;2023-06-10T05:06:49;100667.06;;;14.33;58.49
43621;BME280;29213;50.770;7.298;2023-06-10T05:09:14;100685.19;;;14.52;58.33
43621;BME280;29213;50.770;7.298;2023-06-10T05:11:40;100717.22;;;14.76;58.64
43621;BME280;29213;50.770;7.298;2023-06-10T05:14:06;100685.47;;;14.58;58.40
43621;BME280;29213;50.770;7.298;2023-06-10T05:16:31;100672.47;;;14.54;58.75
43621;BME280;29213;50.770;7.298;2023-06-10T05:18:57;100666.72;;;14.58;58.49
43621;BME280;29213;50.770;7.298;2023-06-10T05:21:22;100595.75;;;14.16;58.45
43621;BME280;29213;50.770;7.298;2023-06-10T05:23:48;100679.44;;;14.70;58.44
43621;BME280;29213;50.770;7.298;2023-06-10T05:26:13;100708.59;;;14.95;58.37
43621;BME280;29213;50.770;7.298;2023-06-10T05:28:39;100714.47;;;15.06;58.47
43621;BME280;29213;50.770;7.298;2023-06-10T05:31:04;100663.88;;;14.81;58.37
43621;BME280;29213;50.770;7.298;2023-06-10T05:33:30;100685.19;;;15.04;58.23
43621;BME280;29213;50.770;7.298;2023-06-10T05:35:55;100696.88;;;15.18;58.64
43621;BME280;29213;50.770;7.298;2023-06-10T05:38:21;100723.56;;;15.48;58.70
43621;BME280;29213;50.770;7.298;2023-06-10T05:40:46;100662.19;;;15.17;58.79
43621;BME280;29213;50.770;7.298;2023-06-10T05:43:11;100711.78;;;15.49;58.25
43621;BME280;29213;50.770;7.298;2023-06-10T05:45:37;100733.47;;;15.76;58.50
43621;BME280;29213;50.770;7.298;2023-06-10T05:48:03;100710.91;;;15.71;58.64
43621;BME280;29213;50.770;7.298;2023-06-10T05:50:28;100715.19;;;15.87;58.64
43621;BME280;29213;50.770;7.298;2023-06-10T05:52:53;100731.03;;;16.03;58.12
43621;BME280;29213;50.770;7.298;2023-06-10T05:55:20;100738.72;;;16.13;58.36
43621;BME280;29213;50.770;7.298;2023-06-10T05:57:45;100714.72;;;16.05;58.00
43621;BME280;29213;50.770;7.298;2023-06-10T06:00:11;100707.09;;;16.15;58.55
43621;BME280;29213;50.770;7.298;2023-06-10T06:02:37;100692.84;;;16.15;58.44
43621;BME280;29213;50.770;7.298;2023-06-10T06:05:02;100659.53;;;16.09;57.71
43621;BME280;29213;50.770;7.298;2023-06-10T06:07:28;100734.84;;;16.65;57.08
43621;BME280;29213;50.770;7.298;2023-06-10T06:09:53;100707.50;;;16.54;56.83
43621;BME280;29213;50.770;7.298;2023-06-10T06:12:19;100737.78;;;16.83;57.19
43621;BME280;29213;50.770;7.298;2023-06-10T06:14:44;100676.88;;;16.55;56.55
43621;BME280;29213;50.770;7.298;2023-06-10T06:17:10;100707.41;;;16.83;56.59
43621;BME280;29213;50.770;7.298;2023-06-10T06:19:35;100683.97;;;16.77;55.15
43621;BME280;29213;50.770;7.298;2023-06-10T06:22:01;100671.59;;;16.82;55.50
43621;BME280;29213;50.770;7.298;2023-06-10T06:24:26;100696.28;;;17.06;54.39
43621;BME280;29213;50.770;7.298;2023-06-10T06:26:51;100710.78;;;17.26;54.71
43621;BME280;29213;50.770;7.298;2023-06-10T06:29:17;100687.81;;;17.23;54.55
43621;BME280;29213;50.770;7.298;2023-06-10T06:31:43;100666.28;;;17.23;54.22
43621;BME280;29213;50.770;7.298;2023-06-10T06:34:08;100701.28;;;17.50;53.53
43621;BME280;29213;50.770;7.298;2023-06-10T06:36:34;100693.59;;;17.54;52.80
43621;BME280;29213;50.770;7.298;2023-06-10T06:38:59;100701.28;;;17.70;51.54
43621;BME280;29213;50.770;7.298;2023-06-10T06:41:27;100695.28;;;17.68;52.94
43621;BME280;29213;50.770;7.298;2023-06-10T06:43:56;100705.41;;;17.86;51.41
43621;BME280;29213;50.770;7.298;2023-06-10T06:46:21;100677.06;;;17.77;51.08
43621;BME280;29213;50.770;7.298;2023-06-10T06:48:47;100669.19;;;17.75;46.61
43621;BME280;29213;50.770;7.298;2023-06-10T06:51:13;100711.38;;;18.15;49.59
43621;BME280;29213;50.770;7.298;2023-06-10T06:53:39;100682.38;;;18.04;49.58
43621;BME280;29213;50.770;7.298;2023-06-10T06:56:10;100699.69;;;18.28;45.72
43621;BME280;29213;50.770;7.298;2023-06-10T06:58:35;100731.38;;;18.53;46.35
43621;BME280;29213;50.770;7.298;2023-06-10T07:01:00;100669.03;;;18.29;47.30
43621;BME280;29213;50.770;7.298;2023-06-10T07:03:26;100732.72;;;18.76;46.57
43621;BME280;29213;50.770;7.298;2023-06-10T07:05:51;100728.75;;;18.86;45.70
43621;BME280;29213;50.770;7.298;2023-06-10T07:08:16;100710.72;;;18.79;44.81
43621;BME280;29213;50.770;7.298;2023-06-10T07:10:42;100602.63;;;18.35;45.48
43621;BME280;29213;50.770;7.298;2023-06-10T07:13:07;100686.69;;;19.03;45.79
43621;BME280;29213;50.770;7.298;2023-06-10T07:15:33;100712.28;;;19.33;44.86
43621;BME280;29213;50.770;7.298;2023-06-10T07:17:58;100677.41;;;19.25;45.72
43621;BME280;29213;50.770;7.298;2023-06-10T07:20:24;100705.69;;;19.47;43.68
43621;BME280;29213;50.770;7.298;2023-06-10T07:22:49;100698.13;;;19.56;43.04
43621;BME280;29213;50.770;7.298;2023-06-10T07:25:14;100642.41;;;19.43;43.73
43621;BME280;29213;50.770;7.298;2023-06-10T07:27:40;100708.31;;;19.98;44.37
43621;BME280;29213;50.770;7.298;2023-06-10T07:30:07;100719.19;;;20.17;42.23
43621;BME280;29213;50.770;7.298;2023-06-10T07:32:33;100715.75;;;20.28;42.50
43621;BME280;29213;50.770;7.298;2023-06-10T07:34:59;100710.91;;;20.31;42.47
43621;BME280;29213;50.770;7.298;2023-06-10T07:37:24;100622.97;;;19.91;43.72
43621;BME280;29213;50.770;7.298;2023-06-10T07:39:49;100701.41;;;20.59;44.04
43621;BME280;29213;50.770;7.298;2023-06-10T07:42:15;100698.63;;;20.65;42.38
43621;BME280;29213;50.770;7.298;2023-06-10T07:44:40;100701.63;;;20.76;41.67
43621;BME280;29213;50.770;7.298;2023-06-10T07:47:06;100689.25;;;20.80;39.92
43621;BME280;29213;50.770;7.298;2023-06-10T07:49:31;100733.31;;;21.18;41.08
43621;BME280;29213;50.770;7.298;2023-06-10T07:51:57;100728.59;;;21.25;40.59
43621;BME280;29213;50.770;7.298;2023-06-10T07:54:23;100697.50;;;21.16;40.47
43621;BME280;29213;50.770;7.298;2023-06-10T07:56:48;100722.03;;;21.45;40.40
43621;BME280;29213;50.770;7.298;2023-06-10T07:59:14;100731.75;;;21.65;41.43
43621;BME280;29213;50.770;7.298;2023-06-10T08:01:40;100694.25;;;21.49;40.29
43621;BME280;29213;50.770;7.298;2023-06-10T08:04:06;100603.56;;;21.16;41.61
43621;BME280;29213;50.770;7.298;2023-06-10T08:06:31;100669.19;;;21.66;38.53
43621;BME280;29213;50.770;7.298;2023-06-10T08:08:57;100722.41;;;22.08;40.86
43621;BME280;29213;50.770;7.298;2023-06-10T08:11:22;100734.06;;;22.33;39.87
43621;BME280;29213;50.770;7.298;2023-06-10T08:13:47;100715.56;;;22.30;39.71
43621;BME280;29213;50.770;7.298;2023-06-10T08:16:13;100683.56;;;22.32;40.31
43621;BME280;29213;50.770;7.298;2023-06-10T08:18:38;100646.44;;;22.20;40.13
43621;BME280;29213;50.770;7.298;2023-06-10T08:21:03;100686.00;;;22.74;39.38
43621;BME280;29213;50.770;7.298;2023-06-10T08:23:29;100737.28;;;23.17;38.50
43621;BME280;29213;50.770;7.298;2023-06-10T08:25:54;100701.28;;;23.10;38.48
43621;BME280;29213;50.770;7.298;2023-06-10T08:28:20;100697.84;;;23.14;37.60
43621;BME280;29213;50.770;7.298;2023-06-10T08:30:45;100671.19;;;23.11;38.50
43621;BME280;29213;50.770;7.298;2023-06-10T08:33:10;100713.16;;;23.55;38.45
43621;BME280;29213;50.770;7.298;2023-06-10T08:35:36;100707.22;;;23.58;36.30
43621;BME280;29213;50.770;7.298;2023-06-10T08:38:01;100680.38;;;23.44;36.05
43621;BME280;29213;50.770;7.298;2023-06-10T08:40:27;100720.72;;;23.87;37.54
43621;BME280;29213;50.770;7.298;2023-06-10T08:43:06;100718.38;;;23.96;38.27
43621;BME280;29213;50.770;7.298;2023-06-10T08:45:34;100708.69;;;24.05;36.38
43621;BME280;29213;50.770;7.298;2023-06-10T08:48:02;100617.19;;;23.71;36.19
43621;BME280;29213;50.770;7.298;2023-06-10T08:50:30;100730.13;;;24.41;35.46
43621;BME280;29213;50.770;7.298;2023-06-10T08:52:57;100734.53;;;24.47;35.37
43621;BME280;29213;50.770;7.298;2023-06-10T08:55:29;100743.72;;;24.63;36.40
43621;BME280;29213;50.770;7.298;2023-06-10T08:57:55;100671.94;;;24.47;36.60
43621;BME280;29213;50.770;7.298;2023-06-10T09:00:21;100710.34;;;25.01;36.49
43621;BME280;29213;50.770;7.298;2023-06-10T09:02:47;100684.50;;;25.03;35.73
43621;BME280;29213;50.770;7.298;2023-06-10T09:05:13;100697.25;;;25.36;35.42
43621;BME280;29213;50.770;7.298;2023-06-10T09:07:39;100693.31;;;25.54;35.25
43621;BME280;29213;50.770;7.298;2023-06-10T09:10:05;100682.22;;;25.66;35.77
43621;BME280;29213;50.770;7.298;2023-06-10T09:12:35;100672.75;;;25.84;35.91
43621;BME280;29213;50.770;7.298;2023-06-10T09:15:03;100722.34;;;26.24;34.67
43621;BME280;29213;50.770;7.298;2023-06-10T09:17:29;100701.59;;;26.23;34.21
43621;BME280;29213;50.770;7.298;2023-06-10T09:19:55;100725.97;;;26.50;34.62
43621;BME280;29213;50.770;7.298;2023-06-10T09:22:23;100659.88;;;26.38;35.02
43621;BME280;29213;50.770;7.298;2023-06-10T09:24:48;100713.78;;;26.89;34.11
43621;BME280;29213;50.770;7.298;2023-06-10T09:27:14;100717.91;;;26.97;34.16
43621;BME280;29213;50.770;7.298;2023-06-10T09:29:55;100666.78;;;26.77;33.85
43621;BME280;29213;50.770;7.298;2023-06-10T09:32:21;100705.88;;;27.29;33.44
43621;BME280;29213;50.770;7.298;2023-06-10T09:34:47;100660.22;;;27.14;32.67
43621;BME280;29213;50.770;7.298;2023-06-10T09:37:19;100647.38;;;27.15;32.67
43621;BME280;29213;50.770;7.298;2023-06-10T09:39:45;100673.06;;;27.40;31.45
43621;BME280;29213;50.770;7.298;2023-06-10T09:42:25;100640.56;;;27.33;30.24
43621;BME280;29213;50.770;7.298;2023-06-10T09:44:51;100643.81;;;27.45;30.93
43621;BME280;29213;50.770;7.298;2023-06-10T09:47:23;100660.41;;;27.75;31.21
43621;BME280;29213;50.770;7.298;2023-06-10T09:49:49;100680.03;;;28.03;30.41
43621;BME280;29213;50.770;7.298;2023-06-10T09:52:21;100641.72;;;27.98;31.70
43621;BME280;29213;50.770;7.298;2023-06-10T09:54:47;100610.78;;;27.97;29.97
43621;BME280;29213;50.770;7.298;2023-06-10T09:57:12;100607.94;;;28.18;30.39
43621;BME280;29213;50.770;7.298;2023-06-10T09:59:38;100631.56;;;28.54;30.31
43621;BME280;29213;50.770;7.298;2023-06-10T10:02:03;100660.28;;;28.91;30.38
43621;BME280;29213;50.770;7.298;2023-06-10T10:04:29;100686.63;;;29.22;29.33
43621;BME280;29213;50.770;7.298;2023-06-10T10:06:55;100627.34;;;29.02;29.61
43621;BME280;29213;50.770;7.298;2023-06-10T10:09:20;100678.16;;;29.48;27.99
43621;BME280;29213;50.770;7.298;2023-06-10T10:11:47;100576.44;;;28.90;28.45
43621;BME280;29213;50.770;7.298;2023-06-10T10:14:15;100659.69;;;29.59;28.68
43621;BME280;29213;50.770;7.298;2023-06-10T10:16:41;100679.75;;;29.79;28.29
43621;BME280;29213;50.770;7.298;2023-06-10T10:19:11;100651.22;;;29.55;27.35
43621;BME280;29213;50.770;7.298;2023-06-10T10:21:43;100661.03;;;29.62;27.36
43621;BME280;29213;50.770;7.298;2023-06-10T10:24:16;100584.38;;;29.22;26.32
43621;BME280;29213;50.770;7.298;2023-06-10T10:26:43;100660.78;;;29.82;27.67
43621;BME280;29213;50.770;7.298;2023-06-10T10:29:20;100668.72;;;30.08;28.36
43621;BME280;29213;50.770;7.298;2023-06-10T10:31:50;100670.56;;;30.32;25.88
43621;BME280;29213;50.770;7.298;2023-06-10T10:34:24;100648.09;;;30.30;27.52
43621;BME280;29213;50.770;7.298;2023-06-10T10:36:55;100664.94;;;30.62;27.63
43621;BME280;29213;50.770;7.298;2023-06-10T10:39:21;100601.69;;;30.29;28.30
43621;BME280;29213;50.770;7.298;2023-06-10T10:41:47;100633.72;;;30.72;27.79
43621;BME280;29213;50.770;7.298;2023-06-10T10:44:13;100638.03;;;30.78;27.22
43621;BME280;29213;50.770;7.298;2023-06-10T10:46:49;100655.41;;;30.54;25.89
43621;BME280;29213;50.770;7.298;2023-06-10T10:49:15;100636.44;;;30.19;25.72
43621;BME280;29213;50.770;7.298;2023-06-10T10:51:57;100663.16;;;30.14;24.70
43621;BME280;29213;50.770;7.298;2023-06-10T10:54:33;100615.03;;;29.53;25.60
43621;BME280;29213;50.770;7.298;2023-06-10T11:00:03;100660.41;;;29.40;26.46
43621;BME280;29213;50.770;7.298;2023-06-10T11:02:44;100578.75;;;28.78;26.78
43621;BME280;29213;50.770;7.298;2023-06-10T11:05:17;100630.94;;;29.27;27.81
43621;BME280;29213;50.770;7.298;2023-06-10T11:07:55;100636.00;;;29.39;26.26
43621;BME280;29213;50.770;7.298;2023-06-10T11:10:32;100630.84;;;29.62;27.20
43621;BME280;29213;50.770;7.298;2023-06-10T11:12:58;100645.47;;;30.01;24.79
43621;BME280;29213;50.770;7.298;2023-06-10T11:15:28;100648.09;;;30.11;25.86
43621;BME280;29213;50.770;7.298;2023-06-10T11:31:21;100628.78;;;29.48;21.85
43621;BME280;29213;50.770;7.298;2023-06-10T11:33:48;100596.75;;;29.19;21.72
43621;BME280;29213;50.770;7.298;2023-06-10T11:36:14;100640.28;;;29.50;21.34
43621;BME280;29213;50.770;7.298;2023-06-10T11:38:40;100600.00;;;29.45;22.06
43621;BME280;29213;50.770;7.298;2023-06-10T11:41:06;100614.34;;;29.86;22.30
43621;BME280;29213;50.770;7.298;2023-06-10T11:43:33;100575.94;;;29.86;22.36
43621;BME280;29213;50.770;7.298;2023-06-10T11:45:59;100623.59;;;30.15;21.19
43621;BME280;29213;50.770;7.298;2023-06-10T11:48:25;100598.91;;;30.15;21.29
43621;BME280;29213;50.770;7.298;2023-06-10T11:50:53;100620.25;;;30.37;21.43
43621;BME280;29213;50.770;7.298;2023-06-10T11:53:19;100574.91;;;30.20;21.15
43621;BME280;29213;50.770;7.298;2023-06-10T11:55:45;100625.44;;;30.58;21.12
43621;BME280;29213;50.770;7.298;2023-06-10T11:58:16;100614.16;;;30.59;21.20
43621;BME280;29213;50.770;7.298;2023-06-10T12:00:46;100624.28;;;30.78;20.11
43621;BME280;29213;50.770;7.298;2023-06-10T12:03:11;100620.72;;;30.77;20.68
43621;BME280;29213;50.770;7.298;2023-06-10T12:05:37;100584.78;;;30.55;22.18
43621;BME280;29213;50.770;7.298;2023-06-10T12:08:08;100511.94;;;29.71;21.10
43621;BME280;29213;50.770;7.298;2023-06-10T12:10:39;100621.28;;;30.41;21.24
43621;BME280;29213;50.770;7.298;2023-06-10T12:13:05;100588.84;;;30.24;20.42
43621;BME280;29213;50.770;7.298;2023-06-10T12:15:30;100594.94;;;30.40;20.44
43621;BME280;29213;50.770;7.298;2023-06-10T12:17:57;100609.84;;;30.53;20.63
43621;BME280;29213;50.770;7.298;2023-06-10T12:20:28;100592.56;;;30.33;19.61
43621;BME280;29213;50.770;7.298;2023-06-10T12:22:53;100583.53;;;30.14;19.77
43621;BME280;29213;50.770;7.298;2023-06-10T12:25:27;100543.44;;;29.74;20.71
43621;BME280;29213;50.770;7.298;2023-06-10T12:27:56;100558.16;;;29.59;20.60
43621;BME280;29213;50.770;7.298;2023-06-10T12:30:24;100565.91;;;29.76;21.24
43621;BME280;29213;50.770;7.298;2023-06-10T12:32:50;100569.38;;;29.82;22.21
43621;BME280;29213;50.770;7.298;2023-06-10T12:35:19;100598.47;;;30.07;20.76
43621;BME280;29213;50.770;7.298;2023-06-10T12:38:04;100607.03;;;30.01;20.75
43621;BME280;29213;50.770;7.298;2023-06-10T12:40:37;100595.97;;;29.87;22.55
43621;BME280;29213;50.770;7.298;2023-06-10T12:43:03;100606.72;;;29.83;21.02
43621;BME280;29213;50.770;7.298;2023-06-10T12:45:29;100615.53;;;29.80;21.59
43621;BME280;29213;50.770;7.298;2023-06-10T12:48:16;100611.50;;;29.72;22.36
43621;BME280;29213;50.770;7.298;2023-06-10T12:50:42;100546.50;;;29.24;21.49
43621;BME280;29213;50.770;7.298;2023-06-10T12:53:09;100609.63;;;29.43;20.97
43621;BME280;29213;50.770;7.298;2023-06-10T12:55:36;100615.94;;;29.19;21.38
43621;BME280;29213;50.770;7.298;2023-06-10T12:58:02;100544.91;;;28.63;20.86
43621;BME280;29213;50.770;7.298;2023-06-10T13:00:29;100615.41;;;28.87;22.00
43621;BME280;29213;50.770;7.298;2023-06-10T13:02:57;100509.19;;;28.09;22.11
43621;BME280;29213;50.770;7.298;2023-06-10T13:05:22;100613.28;;;28.79;23.64
43621;BME280;29213;50.770;7.298;2023-06-10T13:07:48;100560.72;;;28.42;23.03
43621;BME280;29213;50.770;7.298;2023-06-10T13:10:15;100595.25;;;28.73;24.24